Time;durP1;ratioP1;P1;durP2;ratioP2;P2;SDS_P1;SDS_P2;PMS_P1;PMS_P2;Temp;Humidity;BMP_temperature;BMP_pressure;BME280_temperature;BME280_humidity;BME280_pressure;Samples;Min_cycle;Max_cycle;Signal;HPM_P1;HPM_P2
2023/05/08 00:00:11;;;;;;;;;;;23.70;56.60;;;;;;1561703;75;774;-65
2023/05/08 00:02:13;;;;;;;;;;;23.60;56.50;;;;;;1558222;74;769;-65
2023/05/08 00:04:15;;;;;;;;;;;23.70;56.70;;;;;;1557702;74;1444;-66
2023/05/08 00:06:16;;;;;;;;;;;23.70;56.70;;;;;;1550011;75;810;-65
2023/05/08 00:08:18;;;;;;;;;;;23.70;56.60;;;;;;1565973;75;1168;-66
2023/05/08 00:10:20;;;;;;;;;;;23.60;56.60;;;;;;1559804;74;1948;-64
2023/05/08 00:12:22;;;;;;;;;;;23.70;56.70;;;;;;1564268;75;776;-66
2023/05/08 00:14:24;;;;;;;;;;;23.70;56.70;;;;;;1560394;74;694;-66
2023/05/08 00:16:26;;;;;;;;;;;23.70;56.60;;;;;;1564327;74;709;-66
2023/05/08 00:18:29;;;;;;;;;;;23.70;56.60;;;;;;1565753;74;1521;-66
2023/05/08 00:20:31;;;;;;;;;;;23.60;56.50;;;;;;1561202;75;791;-66
2023/05/08 00:22:33;;;;;;;;;;;23.70;56.80;;;;;;1569782;74;772;-66
2023/05/08 00:24:35;;;;;;;;;;;23.70;56.70;;;;;;1567958;74;762;-67
2023/05/08 00:26:37;;;;;;;;;;;23.70;56.80;;;;;;1544924;74;797;-67
2023/05/08 00:28:39;;;;;;;;;;;23.60;56.60;;;;;;1561199;74;1221;-66
2023/05/08 00:30:41;;;;;;;;;;;23.60;56.80;;;;;;1558468;74;1956;-66
2023/05/08 00:32:43;;;;;;;;;;;23.60;56.70;;;;;;1567226;74;1471;-63
2023/05/08 00:34:45;;;;;;;;;;;23.60;56.80;;;;;;1549921;75;786;-66
2023/05/08 00:36:46;;;;;;;;;;;23.70;56.80;;;;;;1553325;74;751;-66
2023/05/08 00:38:48;;;;;;;;;;;23.70;57.00;;;;;;1549616;75;1233;-66
2023/05/08 00:40:50;;;;;;;;;;;23.70;57.00;;;;;;1564131;74;757;-66
2023/05/08 00:42:52;;;;;;;;;;;23.60;57.20;;;;;;1565026;74;822;-66
2023/05/08 00:44:54;;;;;;;;;;;23.60;57.00;;;;;;1565645;74;801;-66
2023/05/08 00:46:56;;;;;;;;;;;23.60;56.90;;;;;;1561265;74;1428;-64
2023/05/08 00:48:58;;;;;;;;;;;23.60;56.90;;;;;;1559634;74;1080;-66
2023/05/08 00:51:00;;;;;;;;;;;23.60;57.20;;;;;;1566860;74;1948;-64
2023/05/08 00:53:02;;;;;;;;;;;23.50;57.10;;;;;;1565703;75;765;-65
2023/05/08 00:55:05;;;;;;;;;;;23.60;57.10;;;;;;1566624;74;635;-66
2023/05/08 00:57:06;;;;;;;;;;;23.50;57.10;;;;;;1565881;74;754;-66
2023/05/08 00:59:09;;;;;;;;;;;23.60;57.00;;;;;;1565656;74;1141;-67
2023/05/08 01:01:11;;;;;;;;;;;23.60;57.20;;;;;;1565611;74;1460;-63
2023/05/08 01:03:13;;;;;;;;;;;23.50;57.40;;;;;;1566504;75;768;-66
2023/05/08 01:05:15;;;;;;;;;;;23.50;57.50;;;;;;1561849;74;779;-64
2023/05/08 01:07:17;;;;;;;;;;;23.50;57.30;;;;;;1561295;74;1176;-66
2023/05/08 01:09:19;;;;;;;;;;;23.60;57.30;;;;;;1559663;74;601;-67
2023/05/08 01:11:32;;;;;;;;;;;23.50;57.20;;;;;;1566099;74;1935;-66
2023/05/08 01:13:47;;;;;;;;;;;23.50;57.30;;;;;;1565659;74;775;-66
2023/05/08 01:15:54;;;;;;;;;;;23.60;57.20;;;;;;1558707;74;781;-66
2023/05/08 01:18:00;;;;;;;;;;;23.60;57.20;;;;;;1562705;74;1579;-67
2023/05/08 01:20:19;;;;;;;;;;;23.60;57.00;;;;;;1551325;74;1450;-67
2023/05/08 01:22:28;;;;;;;;;;;23.60;57.00;;;;;;1562616;74;785;-67
2023/05/08 01:24:32;;;;;;;;;;;23.60;56.90;;;;;;1565860;74;747;-66
2023/05/08 01:26:38;;;;;;;;;;;23.60;56.80;;;;;;1558480;74;711;-67
2023/05/08 01:28:50;;;;;;;;;;;23.60;56.90;;;;;;1566827;74;1460;-66
2023/05/08 01:31:06;;;;;;;;;;;23.60;56.80;;;;;;1553433;74;1940;-66
2023/05/08 01:33:10;;;;;;;;;;;23.60;56.90;;;;;;1564396;74;901;-66
2023/05/08 01:35:21;;;;;;;;;;;23.60;56.80;;;;;;1558098;74;926;-66
2023/05/08 01:37:25;;;;;;;;;;;23.60;56.80;;;;;;1567620;74;1197;-63
2023/05/08 01:39:28;;;;;;;;;;;23.60;56.80;;;;;;1551514;74;1127;-66
2023/05/08 01:41:30;;;;;;;;;;;23.70;57.00;;;;;;1563842;74;2132;-66
2023/05/08 01:43:37;;;;;;;;;;;23.60;57.00;;;;;;1565222;74;1424;-65
2023/05/08 01:45:39;;;;;;;;;;;23.50;56.90;;;;;;1568207;74;1633;-65
2023/05/08 01:47:41;;;;;;;;;;;23.60;56.80;;;;;;1567313;74;1154;-66
2023/05/08 01:49:48;;;;;;;;;;;23.60;56.80;;;;;;1552285;74;775;-67
2023/05/08 01:51:52;;;;;;;;;;;23.60;56.70;;;;;;1566264;74;1925;-66
2023/05/08 01:53:56;;;;;;;;;;;23.60;56.70;;;;;;1560604;74;1534;-65
2023/05/08 01:55:59;;;;;;;;;;;23.70;56.80;;;;;;1563834;74;1606;-65
2023/05/08 01:58:01;;;;;;;;;;;23.60;56.60;;;;;;1559536;74;1186;-67
2023/05/08 02:00:03;;;;;;;;;;;23.60;56.50;;;;;;1559858;74;735;-65
2023/05/08 02:02:05;;;;;;;;;;;23.60;56.50;;;;;;1564102;74;772;-65
2023/05/08 02:04:07;;;;;;;;;;;23.70;56.60;;;;;;1553533;74;747;-65
2023/05/08 02:06:09;;;;;;;;;;;23.60;56.60;;;;;;1564327;74;756;-65
2023/05/08 02:08:11;;;;;;;;;;;23.70;56.60;;;;;;1563681;74;1164;-66
2023/05/08 02:10:13;;;;;;;;;;;23.60;56.50;;;;;;1564366;74;1939;-66
2023/05/08 02:12:15;;;;;;;;;;;23.60;56.50;;;;;;1564617;74;760;-65
2023/05/08 02:14:18;;;;;;;;;;;23.60;56.60;;;;;;1560472;74;722;-65
2023/05/08 02:16:20;;;;;;;;;;;23.60;56.80;;;;;;1559929;74;789;-64
2023/05/08 02:18:23;;;;;;;;;;;23.60;56.90;;;;;;1563934;74;1170;-65
2023/05/08 02:20:25;;;;;;;;;;;23.60;56.80;;;;;;1556820;74;766;-65
2023/05/08 02:22:27;;;;;;;;;;;23.60;56.70;;;;;;1561681;74;760;-64
2023/05/08 02:24:29;;;;;;;;;;;23.60;56.70;;;;;;1556846;74;1432;-63
2023/05/08 02:26:31;;;;;;;;;;;23.50;56.70;;;;;;1555956;74;730;-66
2023/05/08 02:28:32;;;;;;;;;;;23.60;56.80;;;;;;1559915;75;1237;-66
2023/05/08 02:30:34;;;;;;;;;;;23.50;56.80;;;;;;1553416;74;1932;-64
2023/05/08 02:32:36;;;;;;;;;;;23.50;56.90;;;;;;1564074;74;665;-66
2023/05/08 02:34:38;;;;;;;;;;;23.50;56.80;;;;;;1564933;74;722;-67
2023/05/08 02:36:40;;;;;;;;;;;23.60;56.80;;;;;;1567879;74;774;-66
2023/05/08 02:38:44;;;;;;;;;;;23.50;56.70;;;;;;1565249;74;1469;-66
2023/05/08 02:40:49;;;;;;;;;;;23.60;56.60;;;;;;1563731;74;783;-65
2023/05/08 02:42:51;;;;;;;;;;;23.60;56.60;;;;;;1564767;74;666;-66
2023/05/08 02:44:53;;;;;;;;;;;23.60;56.50;;;;;;1554149;74;784;-63
2023/05/08 02:47:13;;;;;;;;;;;23.70;56.80;;;;;;1560277;74;917;-66
2023/05/08 02:49:25;;;;;;;;;;;23.60;56.60;;;;;;1557955;75;767;-66
2023/05/08 02:51:34;;;;;;;;;;;23.60;56.70;;;;;;1565423;74;1944;-65
2023/05/08 02:53:41;;;;;;;;;;;23.60;56.60;;;;;;1559885;74;1463;-66
2023/05/08 02:55:44;;;;;;;;;;;23.60;56.60;;;;;;1561775;74;1468;-66
2023/05/08 02:57:47;;;;;;;;;;;23.60;56.50;;;;;;1562200;74;1629;-66
2023/05/08 02:59:53;;;;;;;;;;;23.60;56.50;;;;;;1554553;74;814;-63
2023/05/08 03:01:57;;;;;;;;;;;23.60;56.50;;;;;;1561005;74;1001;-66
2023/05/08 03:04:00;;;;;;;;;;;23.60;56.80;;;;;;1549817;76;1474;-66
2023/05/08 03:06:02;;;;;;;;;;;23.50;56.80;;;;;;1565178;75;750;-66
2023/05/08 03:08:04;;;;;;;;;;;23.50;56.80;;;;;;1560889;74;1475;-66
2023/05/08 03:10:08;;;;;;;;;;;23.50;56.80;;;;;;1561691;74;756;-67
2023/05/08 03:12:10;;;;;;;;;;;23.60;56.70;;;;;;1565019;74;1942;-66
2023/05/08 03:14:12;;;;;;;;;;;23.50;56.70;;;;;;1543826;76;751;-67
2023/05/08 03:16:15;;;;;;;;;;;23.60;56.60;;;;;;1568847;74;803;-66
2023/05/08 03:18:18;;;;;;;;;;;23.60;56.60;;;;;;1564791;74;1184;-67
2023/05/08 03:20:20;;;;;;;;;;;23.60;56.70;;;;;;1567017;74;1436;-65
2023/05/08 03:22:22;;;;;;;;;;;23.60;56.70;;;;;;1557302;74;760;-67
2023/05/08 03:24:24;;;;;;;;;;;23.60;56.70;;;;;;1562294;74;704;-66
2023/05/08 03:26:26;;;;;;;;;;;23.60;56.70;;;;;;1559142;74;792;-65
2023/05/08 03:28:28;;;;;;;;;;;23.50;56.70;;;;;;1563320;74;1176;-65
2023/05/08 03:30:30;;;;;;;;;;;23.50;56.70;;;;;;1556623;74;666;-62
2023/05/08 03:32:32;;;;;;;;;;;23.50;56.70;;;;;;1560112;74;833;-65
2023/05/08 03:34:34;;;;;;;;;;;23.60;56.80;;;;;;1558905;74;1336;-65
2023/05/08 03:36:36;;;;;;;;;;;23.50;56.80;;;;;;1562344;74;763;-66
2023/05/08 03:38:38;;;;;;;;;;;23.50;56.80;;;;;;1565969;74;1180;-66
2023/05/08 03:40:43;;;;;;;;;;;23.50;56.80;;;;;;1558849;74;901;-65
2023/05/08 03:42:45;;;;;;;;;;;23.50;56.80;;;;;;1565081;74;756;-66
2023/05/08 03:44:48;;;;;;;;;;;23.50;56.80;;;;;;1561580;74;792;-66
2023/05/08 03:46:50;;;;;;;;;;;23.50;56.80;;;;;;1568732;75;1534;-66
2023/05/08 03:48:52;;;;;;;;;;;23.60;56.80;;;;;;1564852;74;1449;-65
2023/05/08 03:50:54;;;;;;;;;;;23.50;56.80;;;;;;1551450;74;1950;-64
2023/05/08 03:52:56;;;;;;;;;;;23.50;57.00;;;;;;1563859;74;809;-65
2023/05/08 03:54:58;;;;;;;;;;;23.50;56.90;;;;;;1566029;75;773;-64
2023/05/08 03:57:00;;;;;;;;;;;23.50;57.10;;;;;;1544779;74;721;-65
2023/05/08 03:59:06;;;;;;;;;;;23.50;57.00;;;;;;1563000;74;1176;-65
2023/05/08 04:01:09;;;;;;;;;;;23.50;56.90;;;;;;1568359;74;758;-65
2023/05/08 04:03:27;;;;;;;;;;;23.60;56.90;;;;;;1576696;74;1480;-65
2023/05/08 04:05:31;;;;;;;;;;;23.50;56.80;;;;;;1566790;74;760;-66
2023/05/08 04:07:37;;;;;;;;;;;23.60;56.60;;;;;;1566896;74;1424;-64
2023/05/08 04:09:41;;;;;;;;;;;23.60;56.50;;;;;;1561116;74;1063;-65
2023/05/08 04:11:53;;;;;;;;;;;23.60;56.50;;;;;;1572472;74;1991;-65
2023/05/08 04:13:57;;;;;;;;;;;23.60;56.50;;;;;;1558021;74;824;-66
2023/05/08 04:16:07;;;;;;;;;;;23.60;56.50;;;;;;1563137;75;757;-66
2023/05/08 04:18:10;;;;;;;;;;;23.60;56.70;;;;;;1554136;75;1426;-66
2023/05/08 04:20:13;;;;;;;;;;;23.60;56.60;;;;;;1559962;74;1513;-65
2023/05/08 04:22:15;;;;;;;;;;;23.60;56.60;;;;;;1563019;74;923;-65
2023/05/08 04:24:17;;;;;;;;;;;23.60;56.60;;;;;;1567107;74;667;-68
2023/05/08 04:26:19;;;;;;;;;;;23.50;57.00;;;;;;1567000;75;878;-66
2023/05/08 04:28:21;;;;;;;;;;;23.50;57.50;;;;;;1558495;74;1150;-67
2023/05/08 04:30:23;;;;;;;;;;;23.40;57.30;;;;;;1562825;74;765;-67
2023/05/08 04:32:25;;;;;;;;;;;23.50;57.50;;;;;;1569134;74;1933;-65
2023/05/08 04:34:27;;;;;;;;;;;23.40;57.60;;;;;;1565230;74;760;-65
2023/05/08 04:36:32;;;;;;;;;;;23.40;57.60;;;;;;1560896;74;771;-68
2023/05/08 04:38:36;;;;;;;;;;;23.40;57.60;;;;;;1555112;74;1162;-68
2023/05/08 04:40:38;;;;;;;;;;;23.40;57.60;;;;;;1556928;74;1699;-67
2023/05/08 04:42:42;;;;;;;;;;;23.40;57.50;;;;;;1566062;74;778;-66
2023/05/08 04:44:43;;;;;;;;;;;23.40;57.30;;;;;;1562088;75;1812;-68
2023/05/08 04:46:45;;;;;;;;;;;23.40;57.20;;;;;;1555034;74;743;-67
2023/05/08 04:48:47;;;;;;;;;;;23.40;57.20;;;;;;1563871;74;1223;-68
2023/05/08 04:50:49;;;;;;;;;;;23.50;57.40;;;;;;1566389;75;645;-68
2023/05/08 04:52:51;;;;;;;;;;;23.40;57.10;;;;;;1560205;74;1933;-68
2023/05/08 04:54:53;;;;;;;;;;;23.50;57.30;;;;;;1552091;74;795;-66
2023/05/08 04:56:55;;;;;;;;;;;23.50;57.30;;;;;;1565941;74;791;-68
2023/05/08 04:58:56;;;;;;;;;;;23.40;57.20;;;;;;1567378;74;1385;-65
2023/05/08 05:01:00;;;;;;;;;;;23.50;57.10;;;;;;1566297;74;726;-67
2023/05/08 05:03:02;;;;;;;;;;;23.50;57.20;;;;;;1566076;74;1848;-67
2023/05/08 05:05:04;;;;;;;;;;;23.50;57.20;;;;;;1553868;75;749;-67
2023/05/08 05:07:06;;;;;;;;;;;23.40;57.00;;;;;;1553111;74;746;-68
2023/05/08 05:09:08;;;;;;;;;;;23.50;57.10;;;;;;1560015;74;1131;-65
2023/05/08 05:11:10;;;;;;;;;;;23.50;57.10;;;;;;1562395;74;1934;-65
2023/05/08 05:13:12;;;;;;;;;;;23.40;57.10;;;;;;1557203;74;1457;-67
2023/05/08 05:15:14;;;;;;;;;;;23.40;57.30;;;;;;1559637;74;805;-67
2023/05/08 05:17:16;;;;;;;;;;;23.40;57.30;;;;;;1560157;74;1181;-67
2023/05/08 05:19:18;;;;;;;;;;;23.40;57.40;;;;;;1554561;74;742;-68
2023/05/08 05:21:20;;;;;;;;;;;23.30;57.40;;;;;;1561144;74;754;-67
2023/05/08 05:23:22;;;;;;;;;;;23.30;57.40;;;;;;1565935;74;763;-65
2023/05/08 05:25:23;;;;;;;;;;;23.30;57.30;;;;;;1565021;75;694;-68
2023/05/08 05:27:25;;;;;;;;;;;23.30;57.30;;;;;;1558649;74;1474;-67
2023/05/08 05:29:27;;;;;;;;;;;23.30;57.30;;;;;;1553474;74;734;-66
2023/05/08 05:31:29;;;;;;;;;;;23.40;57.30;;;;;;1570142;74;1928;-67
2023/05/08 05:33:31;;;;;;;;;;;23.30;57.10;;;;;;1565453;74;774;-68
2023/05/08 05:35:33;;;;;;;;;;;23.40;57.00;;;;;;1568559;74;688;-67
2023/05/08 05:37:35;;;;;;;;;;;23.40;57.10;;;;;;1570112;74;1186;-67
2023/05/08 05:39:37;;;;;;;;;;;23.40;57.10;;;;;;1564541;74;765;-67
2023/05/08 05:41:41;;;;;;;;;;;23.30;57.10;;;;;;1560845;74;1240;-68
2023/05/08 05:43:42;;;;;;;;;;;23.40;57.10;;;;;;1565753;74;1371;-64
2023/05/08 05:45:44;;;;;;;;;;;23.30;57.00;;;;;;1560774;74;783;-69
2023/05/08 05:47:49;;;;;;;;;;;23.30;57.00;;;;;;1556084;74;1218;-66
2023/05/08 05:49:51;;;;;;;;;;;23.30;57.10;;;;;;1561163;74;713;-67
2023/05/08 05:51:53;;;;;;;;;;;23.30;57.40;;;;;;1565056;75;1943;-67
2023/05/08 05:53:55;;;;;;;;;;;23.30;57.30;;;;;;1553283;74;798;-66
2023/05/08 05:55:57;;;;;;;;;;;23.30;57.20;;;;;;1563371;74;1444;-66
2023/05/08 05:57:59;;;;;;;;;;;23.30;57.10;;;;;;1567783;74;1182;-68
2023/05/08 06:00:01;;;;;;;;;;;23.30;57.10;;;;;;1555796;74;726;-68
2023/05/08 06:02:03;;;;;;;;;;;23.30;57.10;;;;;;1561213;74;760;-68
2023/05/08 06:04:05;;;;;;;;;;;23.30;57.10;;;;;;1556650;74;734;-68
2023/05/08 06:06:07;;;;;;;;;;;23.20;57.00;;;;;;1565289;74;770;-68
2023/05/08 06:08:10;;;;;;;;;;;23.30;57.10;;;;;;1560824;74;1163;-69
2023/05/08 06:10:12;;;;;;;;;;;23.20;57.00;;;;;;1564195;74;1455;-69
2023/05/08 06:12:14;;;;;;;;;;;23.30;57.10;;;;;;1564675;74;1930;-68
2023/05/08 06:14:15;;;;;;;;;;;23.20;57.00;;;;;;1564767;74;618;-68
2023/05/08 06:16:19;;;;;;;;;;;23.20;56.90;;;;;;1542153;74;781;-66
2023/05/08 06:18:21;;;;;;;;;;;23.20;56.90;;;;;;1556467;76;1176;-66
2023/05/08 06:20:23;;;;;;;;;;;23.20;56.90;;;;;;1566079;75;758;-68
2023/05/08 06:22:25;;;;;;;;;;;23.20;56.90;;;;;;1556648;74;787;-68
2023/05/08 06:24:27;;;;;;;;;;;23.20;56.90;;;;;;1558140;74;1459;-68
2023/05/08 06:26:29;;;;;;;;;;;23.20;57.00;;;;;;1548217;74;756;-68
2023/05/08 06:28:31;;;;;;;;;;;23.20;56.90;;;;;;1548948;75;1153;-68
2023/05/08 06:30:33;;;;;;;;;;;23.20;56.90;;;;;;1550988;75;774;-68
2023/05/08 06:32:35;;;;;;;;;;;23.20;57.00;;;;;;1566477;74;1948;-67
2023/05/08 06:34:37;;;;;;;;;;;23.20;57.00;;;;;;1556740;74;742;-68
2023/05/08 06:36:39;;;;;;;;;;;23.20;56.90;;;;;;1560427;74;757;-68
2023/05/08 06:38:41;;;;;;;;;;;23.20;56.90;;;;;;1560254;76;1451;-68
2023/05/08 06:40:43;;;;;;;;;;;23.20;57.00;;;;;;1562620;74;770;-68
2023/05/08 06:42:46;;;;;;;;;;;23.10;56.90;;;;;;1563768;74;756;-68
2023/05/08 06:44:49;;;;;;;;;;;23.10;57.00;;;;;;1555851;75;780;-68
2023/05/08 06:46:51;;;;;;;;;;;23.10;57.00;;;;;;1558520;74;762;-68
2023/05/08 06:48:53;;;;;;;;;;;23.10;57.10;;;;;;1554074;74;1190;-66
2023/05/08 06:50:55;;;;;;;;;;;23.10;57.10;;;;;;1559213;74;761;-65
2023/05/08 06:52:57;;;;;;;;;;;23.20;57.10;;;;;;1563133;74;1950;-64
2023/05/08 06:54:59;;;;;;;;;;;23.20;57.10;;;;;;1556234;74;764;-68
2023/05/08 06:57:01;;;;;;;;;;;23.10;57.10;;;;;;1565475;75;759;-68
2023/05/08 06:59:02;;;;;;;;;;;23.10;57.10;;;;;;1559077;74;1170;-68
2023/05/08 07:01:04;;;;;;;;;;;23.10;57.10;;;;;;1566369;75;799;-67
2023/05/08 07:03:06;;;;;;;;;;;23.10;57.10;;;;;;1560652;74;777;-67
2023/05/08 07:05:08;;;;;;;;;;;23.10;57.10;;;;;;1554567;74;681;-67
2023/05/08 07:07:11;;;;;;;;;;;23.10;57.10;;;;;;1564493;74;1511;-68
2023/05/08 07:09:14;;;;;;;;;;;23.10;57.10;;;;;;1558478;74;925;-68
2023/05/08 07:11:15;;;;;;;;;;;23.10;57.10;;;;;;1561397;75;746;-67
2023/05/08 07:13:20;;;;;;;;;;;23.10;57.10;;;;;;1561663;74;1943;-68
2023/05/08 07:15:21;;;;;;;;;;;23.10;57.10;;;;;;1565414;74;1559;-68
2023/05/08 07:17:23;;;;;;;;;;;23.10;57.10;;;;;;1559831;74;1152;-65
2023/05/08 07:19:25;;;;;;;;;;;23.10;57.10;;;;;;1563003;74;1282;-67
2023/05/08 07:21:28;;;;;;;;;;;23.10;57.00;;;;;;1557312;74;781;-68
2023/05/08 07:23:30;;;;;;;;;;;23.20;57.00;;;;;;1550187;74;727;-67
2023/05/08 07:25:32;;;;;;;;;;;23.20;57.00;;;;;;1556944;74;746;-67
2023/05/08 07:27:34;;;;;;;;;;;23.10;57.10;;;;;;1562648;75;1128;-65
2023/05/08 07:29:36;;;;;;;;;;;23.00;56.90;;;;;;1557504;75;757;-68
2023/05/08 07:31:41;;;;;;;;;;;23.10;57.10;;;;;;1555335;74;727;-68
2023/05/08 07:33:43;;;;;;;;;;;23.10;57.10;;;;;;1564459;75;1938;-68
2023/05/08 07:35:45;;;;;;;;;;;23.10;57.10;;;;;;1562089;74;662;-68
2023/05/08 07:37:47;;;;;;;;;;;23.10;57.10;;;;;;1559675;74;1189;-68
2023/05/08 07:39:48;;;;;;;;;;;23.10;57.10;;;;;;1565518;75;768;-68
2023/05/08 07:41:50;;;;;;;;;;;23.10;57.10;;;;;;1558498;75;753;-67
2023/05/08 07:43:52;;;;;;;;;;;23.10;57.10;;;;;;1565540;75;768;-68
2023/05/08 07:45:54;;;;;;;;;;;23.00;56.90;;;;;;1559154;75;738;-67
2023/05/08 07:47:57;;;;;;;;;;;23.10;57.00;;;;;;1566241;75;1472;-68
2023/05/08 07:49:59;;;;;;;;;;;23.10;56.90;;;;;;1557076;74;728;-68
2023/05/08 07:52:00;;;;;;;;;;;23.10;57.00;;;;;;1563975;74;748;-67
2023/05/08 07:54:02;;;;;;;;;;;23.10;57.10;;;;;;1562706;74;1932;-66
2023/05/08 07:56:04;;;;;;;;;;;23.00;56.90;;;;;;1557630;74;756;-68
2023/05/08 07:58:06;;;;;;;;;;;23.10;57.10;;;;;;1555156;74;1256;-68
2023/05/08 08:00:09;;;;;;;;;;;23.10;57.10;;;;;;1566382;75;727;-68
2023/05/08 08:02:11;;;;;;;;;;;23.10;57.10;;;;;;1565056;75;1355;-68
2023/05/08 08:04:17;;;;;;;;;;;23.10;57.00;;;;;;1558879;74;759;-68
2023/05/08 08:06:17;;;;;;;;;;;23.00;56.90;;;;;;1558054;74;1247;-65
2023/05/08 08:08:19;;;;;;;;;;;23.00;56.90;;;;;;1562482;74;1165;-68
2023/05/08 08:10:21;;;;;;;;;;;23.10;57.00;;;;;;1561015;75;749;-68
2023/05/08 08:12:23;;;;;;;;;;;23.10;57.10;;;;;;1558384;74;1928;-68
2023/05/08 08:14:24;;;;;;;;;;;23.00;56.90;;;;;;1564589;75;790;-68
2023/05/08 08:16:26;;;;;;;;;;;23.10;57.10;;;;;;1566606;74;1449;-66
2023/05/08 08:18:28;;;;;;;;;;;23.00;56.90;;;;;;1566595;74;1187;-68
2023/05/08 08:20:30;;;;;;;;;;;23.10;57.00;;;;;;1564914;74;740;-68
2023/05/08 08:22:32;;;;;;;;;;;23.10;57.10;;;;;;1566027;74;765;-68
2023/05/08 08:24:34;;;;;;;;;;;23.10;57.00;;;;;;1565329;74;619;-66
2023/05/08 08:26:36;;;;;;;;;;;23.10;57.10;;;;;;1562986;74;789;-68
2023/05/08 08:28:38;;;;;;;;;;;23.00;56.90;;;;;;1562753;75;1171;-68
2023/05/08 08:30:39;;;;;;;;;;;23.00;57.00;;;;;;1565508;74;1459;-68
2023/05/08 08:32:41;;;;;;;;;;;23.10;57.10;;;;;;1568490;74;1932;-66
2023/05/08 08:34:43;;;;;;;;;;;23.00;56.90;;;;;;1552549;74;805;-68
2023/05/08 08:36:45;;;;;;;;;;;23.10;57.00;;;;;;1557555;75;746;-68
2023/05/08 08:38:47;;;;;;;;;;;23.10;57.10;;;;;;1564694;75;1198;-68
2023/05/08 08:40:49;;;;;;;;;;;23.00;57.00;;;;;;1553790;74;677;-68
2023/05/08 08:42:51;;;;;;;;;;;23.10;57.20;;;;;;1556153;74;906;-69
2023/05/08 08:44:53;;;;;;;;;;;23.10;57.10;;;;;;1564869;74;1480;-68
2023/05/08 08:46:54;;;;;;;;;;;23.00;57.00;;;;;;1552696;74;820;-67
2023/05/08 08:48:56;;;;;;;;;;;23.00;57.00;;;;;;1530322;76;1151;-67
2023/05/08 08:50:59;;;;;;;;;;;23.00;57.00;;;;;;1546931;74;767;-69
2023/05/08 08:53:02;;;;;;;;;;;23.00;57.00;;;;;;1564424;74;1948;-69
2023/05/08 08:55:04;;;;;;;;;;;23.00;57.00;;;;;;1550755;74;700;-69
2023/05/08 08:57:08;;;;;;;;;;;23.00;57.00;;;;;;1552394;74;690;-69
2023/05/08 08:59:13;;;;;;;;;;;23.00;57.10;;;;;;1551293;74;1493;-67
2023/05/08 09:01:16;;;;;;;;;;;23.00;57.00;;;;;;1528345;76;733;-69
2023/05/08 09:03:18;;;;;;;;;;;23.00;57.00;;;;;;1559772;75;674;-69
2023/05/08 09:05:21;;;;;;;;;;;23.00;57.00;;;;;;1557710;74;694;-69
2023/05/08 09:07:23;;;;;;;;;;;23.10;57.10;;;;;;1560559;74;1156;-67
2023/05/08 09:09:25;;;;;;;;;;;23.10;57.10;;;;;;1567460;74;685;-68
2023/05/08 09:11:26;;;;;;;;;;;23.00;57.00;;;;;;1563572;74;749;-68
2023/05/08 09:13:29;;;;;;;;;;;23.00;56.90;;;;;;1567532;74;1934;-68
2023/05/08 09:15:33;;;;;;;;;;;23.00;57.00;;;;;;1565997;75;675;-68
2023/05/08 09:17:35;;;;;;;;;;;23.00;56.90;;;;;;1551413;74;1181;-69
2023/05/08 09:19:37;;;;;;;;;;;23.00;56.90;;;;;;1559735;75;699;-69
2023/05/08 09:21:39;;;;;;;;;;;23.00;57.00;;;;;;1555697;74;693;-68
2023/05/08 09:23:58;;;;;;;;;;;23.00;57.00;;;;;;1566719;74;735;-66
2023/05/08 09:25:59;;;;;;;;;;;23.00;57.00;;;;;;1566323;74;1430;-68
2023/05/08 09:28:03;;;;;;;;;;;23.00;57.10;;;;;;1566013;74;1147;-68
2023/05/08 09:30:09;;;;;;;;;;;22.90;57.00;;;;;;1559561;74;901;-69
2023/05/08 09:32:11;;;;;;;;;;;23.00;57.10;;;;;;1564541;74;682;-69
2023/05/08 09:34:27;;;;;;;;;;;23.00;57.00;;;;;;1543646;77;1935;-69
2023/05/08 09:36:30;;;;;;;;;;;23.00;57.00;;;;;;1559946;74;1699;-69
2023/05/08 09:38:39;;;;;;;;;;;23.00;57.00;;;;;;1558858;74;1189;-68
2023/05/08 09:40:40;;;;;;;;;;;23.00;57.00;;;;;;1573668;74;1432;-68
2023/05/08 09:42:42;;;;;;;;;;;23.00;57.00;;;;;;1551967;74;736;-69
2023/05/08 09:44:44;;;;;;;;;;;23.00;57.00;;;;;;1556789;74;715;-66
2023/05/08 09:46:49;;;;;;;;;;;23.00;57.00;;;;;;1565003;74;736;-67
2023/05/08 09:48:50;;;;;;;;;;;23.00;57.10;;;;;;1561664;74;1582;-68
2023/05/08 09:50:54;;;;;;;;;;;23.00;57.10;;;;;;1565827;74;691;-68
2023/05/08 09:52:56;;;;;;;;;;;23.00;57.00;;;;;;1563089;74;1939;-69
2023/05/08 09:55:01;;;;;;;;;;;23.00;57.00;;;;;;1560507;74;1457;-67
2023/05/08 09:57:04;;;;;;;;;;;23.00;57.00;;;;;;1563021;74;856;-69
2023/05/08 09:59:22;;;;;;;;;;;23.00;57.10;;;;;;1558025;75;1156;-68
2023/05/08 10:01:27;;;;;;;;;;;23.00;57.10;;;;;;1568463;74;678;-67
2023/05/08 10:03:47;;;;;;;;;;;23.00;57.10;;;;;;1564311;74;684;-66
2023/05/08 10:05:49;;;;;;;;;;;23.00;57.10;;;;;;1563568;74;704;-68
2023/05/08 10:07:51;;;;;;;;;;;23.00;57.10;;;;;;1563382;75;1220;-65
2023/05/08 10:09:59;;;;;;;;;;;23.00;57.10;;;;;;1562750;75;1468;-67
2023/05/08 10:12:01;;;;;;;;;;;23.00;57.10;;;;;;1563250;74;669;-68
2023/05/08 10:14:03;;;;;;;;;;;23.00;57.10;;;;;;1559689;74;1951;-69
2023/05/08 10:16:05;;;;;;;;;;;23.00;57.10;;;;;;1566280;74;698;-66
2023/05/08 10:18:07;;;;;;;;;;;23.00;57.10;;;;;;1553079;74;1128;-67
2023/05/08 10:20:09;;;;;;;;;;;23.00;57.10;;;;;;1558109;74;736;-67
2023/05/08 10:22:11;;;;;;;;;;;23.00;57.10;;;;;;1562789;75;689;-68
2023/05/08 10:24:15;;;;;;;;;;;23.00;57.20;;;;;;1567294;74;732;-68
2023/05/08 10:26:18;;;;;;;;;;;23.00;57.10;;;;;;1565264;74;669;-68
2023/05/08 10:28:31;;;;;;;;;;;23.00;57.20;;;;;;1562699;74;1157;-67
2023/05/08 10:30:32;;;;;;;;;;;22.90;57.20;;;;;;1565996;74;1641;-68
2023/05/08 10:32:39;;;;;;;;;;;22.90;57.20;;;;;;1567145;74;553;-68
2023/05/08 10:34:41;;;;;;;;;;;23.00;57.20;;;;;;1553743;74;1938;-66
2023/05/08 10:36:43;;;;;;;;;;;22.90;57.20;;;;;;1565953;74;1383;-67
2023/05/08 10:38:44;;;;;;;;;;;23.00;57.20;;;;;;1551844;74;1145;-68
2023/05/08 10:40:46;;;;;;;;;;;23.00;57.20;;;;;;1563852;74;656;-65
2023/05/08 10:42:48;;;;;;;;;;;23.00;57.20;;;;;;1568080;74;721;-68
2023/05/08 10:44:50;;;;;;;;;;;22.90;57.20;;;;;;1554965;74;674;-68
2023/05/08 10:46:56;;;;;;;;;;;23.00;57.20;;;;;;1544071;76;764;-66
2023/05/08 10:49:18;;;;;;;;;;;22.90;57.10;;;;;;1560018;74;1171;-66
2023/05/08 10:51:23;;;;;;;;;;;22.90;57.10;;;;;;1565504;74;1677;-67
2023/05/08 10:53:30;;;;;;;;;;;23.00;57.10;;;;;;1561493;74;1942;-68
2023/05/08 10:55:32;;;;;;;;;;;23.00;57.00;;;;;;1550059;75;747;-65
2023/05/08 10:57:34;;;;;;;;;;;23.00;57.10;;;;;;1564461;74;1246;-68
2023/05/08 10:59:36;;;;;;;;;;;23.00;57.10;;;;;;1552254;75;671;-67
2023/05/08 11:01:38;;;;;;;;;;;23.00;57.20;;;;;;1558317;74;688;-68
2023/05/08 11:03:42;;;;;;;;;;;22.90;57.20;;;;;;1556040;74;693;-65
2023/05/08 11:05:45;;;;;;;;;;;23.00;57.20;;;;;;1564078;74;1433;-65
2023/05/08 11:07:54;;;;;;;;;;;22.90;57.20;;;;;;1549148;74;1185;-67
2023/05/08 11:09:58;;;;;;;;;;;22.90;57.20;;;;;;1573485;74;770;-65
2023/05/08 11:12:18;;;;;;;;;;;22.90;57.20;;;;;;1554593;74;1770;-68
2023/05/08 11:14:20;;;;;;;;;;;22.90;57.30;;;;;;1557652;75;1948;-67
2023/05/08 11:16:40;;;;;;;;;;;22.90;57.20;;;;;;1559199;74;694;-68
2023/05/08 11:18:59;;;;;;;;;;;22.90;57.20;;;;;;1559337;74;1505;-69
2023/05/08 11:21:05;;;;;;;;;;;22.90;57.40;;;;;;1550401;74;661;-69
2023/05/08 11:23:22;;;;;;;;;;;23.00;57.30;;;;;;1566602;75;780;-69
2023/05/08 11:25:25;;;;;;;;;;;23.00;57.30;;;;;;1557130;75;756;-69
2023/05/08 11:27:45;;;;;;;;;;;23.10;57.30;;;;;;1553169;74;1583;-69
2023/05/08 11:29:48;;;;;;;;;;;23.10;57.10;;;;;;1554265;74;723;-69
2023/05/08 11:31:50;;;;;;;;;;;23.10;56.90;;;;;;1562975;74;1589;-69
2023/05/08 11:33:52;;;;;;;;;;;23.10;56.80;;;;;;1559654;74;1936;-68
2023/05/08 11:35:58;;;;;;;;;;;23.10;56.60;;;;;;1562621;74;777;-68
2023/05/08 11:38:16;;;;;;;;;;;23.20;56.60;;;;;;1567504;74;1241;-64
2023/05/08 11:40:36;;;;;;;;;;;23.20;56.50;;;;;;1560883;74;654;-66
2023/05/08 11:42:38;;;;;;;;;;;23.20;56.50;;;;;;1548368;74;672;-66
2023/05/08 11:44:40;;;;;;;;;;;23.20;56.50;;;;;;1553471;74;727;-65
2023/05/08 11:46:54;;;;;;;;;;;23.20;56.40;;;;;;1558274;74;1461;-65
2023/05/08 11:49:00;;;;;;;;;;;23.20;56.40;;;;;;1556522;74;1176;-65
2023/05/08 11:51:02;;;;;;;;;;;23.20;56.40;;;;;;1563756;74;663;-63
2023/05/08 11:53:04;;;;;;;;;;;23.20;56.50;;;;;;1557189;74;751;-65
2023/05/08 11:55:08;;;;;;;;;;;23.10;56.50;;;;;;1542789;75;1952;-64
2023/05/08 11:57:09;;;;;;;;;;;23.10;56.60;;;;;;1564299;74;1071;-66
2023/05/08 11:59:12;;;;;;;;;;;23.10;56.70;;;;;;1562712;74;1253;-65
2023/05/08 12:01:15;;;;;;;;;;;23.10;56.80;;;;;;1557698;74;1484;-66
2023/05/08 12:03:17;;;;;;;;;;;23.00;56.60;;;;;;1564203;74;1778;-66
2023/05/08 12:05:21;;;;;;;;;;;23.10;56.80;;;;;;1565257;74;690;-66
2023/05/08 12:07:23;;;;;;;;;;;23.00;56.70;;;;;;1557559;76;1797;-64
2023/05/08 12:09:24;;;;;;;;;;;23.10;56.80;;;;;;1564579;74;689;-67
2023/05/08 12:11:26;;;;;;;;;;;23.00;56.80;;;;;;1561985;74;763;-65
2023/05/08 12:13:28;;;;;;;;;;;23.00;56.80;;;;;;1563402;74;667;-66
2023/05/08 12:15:30;;;;;;;;;;;23.10;56.90;;;;;;1563621;74;1926;-66